sensor_id;sensor_type;location;lat;lon;timestamp;P1;durP1;ratioP1;P2;durP2;ratioP2
40537;SDS011;27925;41.874;12.526;2022-08-19T00:00:12;21.40;;;5.25;;
40537;SDS011;27925;41.874;12.526;2022-08-19T00:02:39;23.45;;;5.05;;
40537;SDS011;27925;41.874;12.526;2022-08-19T00:05:06;25.23;;;5.13;;
40537;SDS011;27925;41.874;12.526;2022-08-19T00:07:34;24.17;;;5.35;;
40537;SDS011;27925;41.874;12.526;2022-08-19T00:10:00;27.30;;;4.88;;
40537;SDS011;27925;41.874;12.526;2022-08-19T00:12:26;24.50;;;5.13;;
40537;SDS011;27925;41.874;12.526;2022-08-19T00:14:52;25.17;;;5.38;;
40537;SDS011;27925;41.874;12.526;2022-08-19T00:17:19;20.52;;;4.95;;
40537;SDS011;27925;41.874;12.526;2022-08-19T00:19:45;28.20;;;5.22;;
40537;SDS011;27925;41.874;12.526;2022-08-19T00:22:12;22.60;;;4.57;;
40537;SDS011;27925;41.874;12.526;2022-08-19T00:24:38;19.85;;;4.15;;
40537;SDS011;27925;41.874;12.526;2022-08-19T00:27:06;22.42;;;5.10;;
40537;SDS011;27925;41.874;12.526;2022-08-19T00:29:32;20.70;;;4.90;;
40537;SDS011;27925;41.874;12.526;2022-08-19T00:31:57;18.83;;;4.65;;
40537;SDS011;27925;41.874;12.526;2022-08-19T00:34:25;21.58;;;4.60;;
40537;SDS011;27925;41.874;12.526;2022-08-19T00:36:53;20.55;;;4.85;;
40537;SDS011;27925;41.874;12.526;2022-08-19T00:39:21;19.35;;;4.43;;
40537;SDS011;27925;41.874;12.526;2022-08-19T00:41:47;23.15;;;4.80;;
40537;SDS011;27925;41.874;12.526;2022-08-19T00:46:43;18.98;;;4.13;;
40537;SDS011;27925;41.874;12.526;2022-08-19T00:49:15;20.65;;;4.95;;
40537;SDS011;27925;41.874;12.526;2022-08-19T00:51:48;20.88;;;4.75;;
40537;SDS011;27925;41.874;12.526;2022-08-19T00:54:18;22.90;;;4.80;;
40537;SDS011;27925;41.874;12.526;2022-08-19T00:56:46;22.40;;;4.63;;
40537;SDS011;27925;41.874;12.526;2022-08-19T00:59:13;20.02;;;4.63;;
40537;SDS011;27925;41.874;12.526;2022-08-19T01:01:41;26.65;;;5.00;;
40537;SDS011;27925;41.874;12.526;2022-08-19T01:04:08;18.63;;;4.28;;
40537;SDS011;27925;41.874;12.526;2022-08-19T01:06:38;17.65;;;4.25;;
40537;SDS011;27925;41.874;12.526;2022-08-19T01:09:06;17.92;;;4.10;;
40537;SDS011;27925;41.874;12.526;2022-08-19T01:11:34;24.65;;;4.45;;
40537;SDS011;27925;41.874;12.526;2022-08-19T01:14:05;17.08;;;4.38;;
40537;SDS011;27925;41.874;12.526;2022-08-19T01:16:32;19.42;;;4.22;;
40537;SDS011;27925;41.874;12.526;2022-08-19T01:18:59;19.35;;;4.80;;
40537;SDS011;27925;41.874;12.526;2022-08-19T01:21:28;19.48;;;4.53;;
40537;SDS011;27925;41.874;12.526;2022-08-19T01:23:59;21.70;;;4.93;;
40537;SDS011;27925;41.874;12.526;2022-08-19T01:26:25;16.17;;;3.83;;
40537;SDS011;27925;41.874;12.526;2022-08-19T01:28:53;20.77;;;4.43;;
40537;SDS011;27925;41.874;12.526;2022-08-19T01:31:21;17.10;;;4.20;;
40537;SDS011;27925;41.874;12.526;2022-08-19T01:33:50;20.73;;;4.65;;
40537;SDS011;27925;41.874;12.526;2022-08-19T01:36:23;17.83;;;3.67;;
40537;SDS011;27925;41.874;12.526;2022-08-19T01:38:52;19.33;;;4.82;;
40537;SDS011;27925;41.874;12.526;2022-08-19T01:41:18;22.60;;;5.03;;
40537;SDS011;27925;41.874;12.526;2022-08-19T01:43:44;22.55;;;5.82;;
40537;SDS011;27925;41.874;12.526;2022-08-19T01:46:11;23.55;;;4.43;;
40537;SDS011;27925;41.874;12.526;2022-08-19T01:48:38;19.75;;;4.22;;
40537;SDS011;27925;41.874;12.526;2022-08-19T01:51:06;22.63;;;4.70;;
40537;SDS011;27925;41.874;12.526;2022-08-19T01:53:33;21.90;;;4.10;;
40537;SDS011;27925;41.874;12.526;2022-08-19T01:55:59;21.15;;;4.85;;
40537;SDS011;27925;41.874;12.526;2022-08-19T01:58:27;21.70;;;4.60;;
40537;SDS011;27925;41.874;12.526;2022-08-19T02:00:58;21.08;;;4.32;;
40537;SDS011;27925;41.874;12.526;2022-08-19T02:03:24;21.50;;;4.25;;
40537;SDS011;27925;41.874;12.526;2022-08-19T02:05:54;17.20;;;3.78;;
40537;SDS011;27925;41.874;12.526;2022-08-19T02:08:21;18.70;;;4.53;;
40537;SDS011;27925;41.874;12.526;2022-08-19T02:10:47;24.85;;;4.97;;
40537;SDS011;27925;41.874;12.526;2022-08-19T02:13:13;22.45;;;4.78;;
40537;SDS011;27925;41.874;12.526;2022-08-19T02:15:39;15.07;;;4.15;;
40537;SDS011;27925;41.874;12.526;2022-08-19T02:18:05;18.40;;;4.32;;
40537;SDS011;27925;41.874;12.526;2022-08-19T02:20:31;17.85;;;4.15;;
40537;SDS011;27925;41.874;12.526;2022-08-19T02:22:57;17.58;;;4.38;;
40537;SDS011;27925;41.874;12.526;2022-08-19T02:25:22;18.40;;;4.18;;
40537;SDS011;27925;41.874;12.526;2022-08-19T02:27:48;17.35;;;4.30;;
40537;SDS011;27925;41.874;12.526;2022-08-19T02:30:15;16.00;;;4.00;;
40537;SDS011;27925;41.874;12.526;2022-08-19T02:32:42;18.48;;;3.83;;
40537;SDS011;27925;41.874;12.526;2022-08-19T02:35:08;19.75;;;4.53;;
40537;SDS011;27925;41.874;12.526;2022-08-19T02:37:34;19.80;;;4.40;;
40537;SDS011;27925;41.874;12.526;2022-08-19T02:40:18;16.33;;;4.00;;
40537;SDS011;27925;41.874;12.526;2022-08-19T02:42:44;20.60;;;3.90;;
40537;SDS011;27925;41.874;12.526;2022-08-19T02:45:11;15.38;;;3.45;;
40537;SDS011;27925;41.874;12.526;2022-08-19T02:47:38;22.48;;;4.45;;
40537;SDS011;27925;41.874;12.526;2022-08-19T02:50:04;14.38;;;3.90;;
40537;SDS011;27925;41.874;12.526;2022-08-19T02:52:31;19.55;;;4.05;;
40537;SDS011;27925;41.874;12.526;2022-08-19T02:54:58;27.30;;;3.97;;
40537;SDS011;27925;41.874;12.526;2022-08-19T02:57:25;18.45;;;3.75;;
40537;SDS011;27925;41.874;12.526;2022-08-19T02:59:51;17.98;;;4.10;;
40537;SDS011;27925;41.874;12.526;2022-08-19T03:02:17;21.55;;;4.28;;
40537;SDS011;27925;41.874;12.526;2022-08-19T03:04:43;24.98;;;4.60;;
40537;SDS011;27925;41.874;12.526;2022-08-19T03:07:09;21.63;;;4.15;;
40537;SDS011;27925;41.874;12.526;2022-08-19T03:09:38;19.00;;;3.78;;
40537;SDS011;27925;41.874;12.526;2022-08-19T03:12:04;18.58;;;4.03;;
40537;SDS011;27925;41.874;12.526;2022-08-19T03:14:31;20.90;;;4.18;;
40537;SDS011;27925;41.874;12.526;2022-08-19T03:16:57;20.05;;;4.50;;
40537;SDS011;27925;41.874;12.526;2022-08-19T03:19:24;16.35;;;4.43;;
40537;SDS011;27925;41.874;12.526;2022-08-19T03:21:50;17.10;;;3.83;;
40537;SDS011;27925;41.874;12.526;2022-08-19T03:24:17;19.55;;;4.57;;
40537;SDS011;27925;41.874;12.526;2022-08-19T03:26:47;21.83;;;4.35;;
40537;SDS011;27925;41.874;12.526;2022-08-19T03:29:16;23.40;;;4.93;;
40537;SDS011;27925;41.874;12.526;2022-08-19T03:31:43;19.05;;;4.30;;
40537;SDS011;27925;41.874;12.526;2022-08-19T03:34:10;19.02;;;4.15;;
40537;SDS011;27925;41.874;12.526;2022-08-19T03:36:37;18.95;;;4.85;;
40537;SDS011;27925;41.874;12.526;2022-08-19T03:39:04;19.80;;;3.92;;
40537;SDS011;27925;41.874;12.526;2022-08-19T03:41:31;18.58;;;3.63;;
40537;SDS011;27925;41.874;12.526;2022-08-19T03:44:01;18.65;;;4.60;;
40537;SDS011;27925;41.874;12.526;2022-08-19T03:46:29;16.17;;;3.50;;
40537;SDS011;27925;41.874;12.526;2022-08-19T03:48:57;21.55;;;4.57;;
40537;SDS011;27925;41.874;12.526;2022-08-19T03:51:31;23.23;;;4.75;;
40537;SDS011;27925;41.874;12.526;2022-08-19T03:54:00;18.42;;;4.05;;
40537;SDS011;27925;41.874;12.526;2022-08-19T03:56:27;16.83;;;4.40;;
40537;SDS011;27925;41.874;12.526;2022-08-19T03:58:54;15.07;;;3.63;;
40537;SDS011;27925;41.874;12.526;2022-08-19T04:01:22;16.55;;;3.70;;
40537;SDS011;27925;41.874;12.526;2022-08-19T04:03:51;14.02;;;3.83;;
40537;SDS011;27925;41.874;12.526;2022-08-19T04:06:21;18.67;;;4.90;;
40537;SDS011;27925;41.874;12.526;2022-08-19T04:08:49;17.27;;;4.55;;
40537;SDS011;27925;41.874;12.526;2022-08-19T04:11:19;20.27;;;4.25;;
40537;SDS011;27925;41.874;12.526;2022-08-19T04:13:47;17.75;;;4.38;;
40537;SDS011;27925;41.874;12.526;2022-08-19T04:16:16;16.02;;;5.03;;
40537;SDS011;27925;41.874;12.526;2022-08-19T04:18:42;15.82;;;3.95;;
40537;SDS011;27925;41.874;12.526;2022-08-19T04:21:08;19.23;;;4.43;;
40537;SDS011;27925;41.874;12.526;2022-08-19T04:23:45;15.68;;;4.05;;
40537;SDS011;27925;41.874;12.526;2022-08-19T04:26:14;13.45;;;4.03;;
40537;SDS011;27925;41.874;12.526;2022-08-19T04:28:42;16.60;;;4.85;;
40537;SDS011;27925;41.874;12.526;2022-08-19T04:31:12;16.23;;;4.35;;
40537;SDS011;27925;41.874;12.526;2022-08-19T04:33:40;15.27;;;3.90;;
40537;SDS011;27925;41.874;12.526;2022-08-19T04:36:06;13.35;;;3.70;;
40537;SDS011;27925;41.874;12.526;2022-08-19T04:38:32;18.05;;;4.13;;
40537;SDS011;27925;41.874;12.526;2022-08-19T04:40:58;16.92;;;4.07;;
40537;SDS011;27925;41.874;12.526;2022-08-19T04:43:42;19.17;;;4.68;;
40537;SDS011;27925;41.874;12.526;2022-08-19T04:46:14;13.25;;;4.25;;
40537;SDS011;27925;41.874;12.526;2022-08-19T04:48:40;18.75;;;4.80;;
40537;SDS011;27925;41.874;12.526;2022-08-19T04:51:07;15.45;;;4.45;;
40537;SDS011;27925;41.874;12.526;2022-08-19T04:53:36;16.40;;;4.60;;
40537;SDS011;27925;41.874;12.526;2022-08-19T04:56:09;13.77;;;4.30;;
40537;SDS011;27925;41.874;12.526;2022-08-19T04:58:42;18.30;;;4.78;;
40537;SDS011;27925;41.874;12.526;2022-08-19T05:01:19;16.27;;;4.50;;
40537;SDS011;27925;41.874;12.526;2022-08-19T05:03:50;18.08;;;4.00;;
40537;SDS011;27925;41.874;12.526;2022-08-19T05:06:17;16.98;;;4.63;;
40537;SDS011;27925;41.874;12.526;2022-08-19T05:08:45;16.45;;;4.10;;
40537;SDS011;27925;41.874;12.526;2022-08-19T05:11:17;16.52;;;4.50;;
40537;SDS011;27925;41.874;12.526;2022-08-19T05:13:47;17.95;;;4.13;;
40537;SDS011;27925;41.874;12.526;2022-08-19T05:16:14;13.70;;;3.97;;
40537;SDS011;27925;41.874;12.526;2022-08-19T05:18:42;10.82;;;3.78;;
40537;SDS011;27925;41.874;12.526;2022-08-19T05:21:27;18.85;;;4.20;;
40537;SDS011;27925;41.874;12.526;2022-08-19T05:24:12;14.52;;;4.03;;
40537;SDS011;27925;41.874;12.526;2022-08-19T05:26:41;15.55;;;4.80;;
40537;SDS011;27925;41.874;12.526;2022-08-19T05:29:11;16.85;;;5.40;;
40537;SDS011;27925;41.874;12.526;2022-08-19T05:31:38;14.43;;;5.05;;
40537;SDS011;27925;41.874;12.526;2022-08-19T05:34:05;14.27;;;4.95;;
40537;SDS011;27925;41.874;12.526;2022-08-19T05:36:38;15.70;;;4.97;;
40537;SDS011;27925;41.874;12.526;2022-08-19T05:39:08;17.58;;;4.75;;
40537;SDS011;27925;41.874;12.526;2022-08-19T05:41:41;12.43;;;4.35;;
40537;SDS011;27925;41.874;12.526;2022-08-19T05:44:14;15.70;;;4.40;;
40537;SDS011;27925;41.874;12.526;2022-08-19T05:46:42;13.15;;;3.88;;
40537;SDS011;27925;41.874;12.526;2022-08-19T05:49:14;17.02;;;4.10;;
40537;SDS011;27925;41.874;12.526;2022-08-19T05:51:40;14.70;;;4.47;;
40537;SDS011;27925;41.874;12.526;2022-08-19T05:54:08;15.32;;;5.03;;
40537;SDS011;27925;41.874;12.526;2022-08-19T05:56:36;11.15;;;4.10;;
40537;SDS011;27925;41.874;12.526;2022-08-19T05:59:03;12.18;;;4.05;;
40537;SDS011;27925;41.874;12.526;2022-08-19T06:01:34;17.35;;;4.22;;
40537;SDS011;27925;41.874;12.526;2022-08-19T06:04:01;12.55;;;3.85;;
40537;SDS011;27925;41.874;12.526;2022-08-19T06:06:27;14.43;;;4.30;;
40537;SDS011;27925;41.874;12.526;2022-08-19T06:08:53;13.82;;;3.75;;
40537;SDS011;27925;41.874;12.526;2022-08-19T06:14:02;15.50;;;4.03;;
40537;SDS011;27925;41.874;12.526;2022-08-19T06:16:36;10.48;;;3.75;;
40537;SDS011;27925;41.874;12.526;2022-08-19T06:19:08;14.75;;;3.60;;
40537;SDS011;27925;41.874;12.526;2022-08-19T06:21:37;12.38;;;3.80;;
40537;SDS011;27925;41.874;12.526;2022-08-19T06:24:05;14.02;;;3.72;;
40537;SDS011;27925;41.874;12.526;2022-08-19T06:26:35;13.05;;;3.78;;
40537;SDS011;27925;41.874;12.526;2022-08-19T06:29:03;9.48;;;3.75;;
40537;SDS011;27925;41.874;12.526;2022-08-19T06:31:34;11.77;;;3.50;;
40537;SDS011;27925;41.874;12.526;2022-08-19T06:34:01;14.90;;;4.00;;
40537;SDS011;27925;41.874;12.526;2022-08-19T06:36:29;17.92;;;4.07;;
40537;SDS011;27925;41.874;12.526;2022-08-19T06:38:58;10.82;;;3.08;;
40537;SDS011;27925;41.874;12.526;2022-08-19T06:41:46;17.30;;;3.75;;
40537;SDS011;27925;41.874;12.526;2022-08-19T06:44:14;11.93;;;3.42;;
40537;SDS011;27925;41.874;12.526;2022-08-19T06:46:40;12.35;;;3.50;;
40537;SDS011;27925;41.874;12.526;2022-08-19T06:49:07;12.75;;;3.47;;
40537;SDS011;27925;41.874;12.526;2022-08-19T06:51:36;10.80;;;3.55;;
40537;SDS011;27925;41.874;12.526;2022-08-19T06:54:02;9.25;;;2.75;;
40537;SDS011;27925;41.874;12.526;2022-08-19T06:56:30;11.95;;;3.22;;
40537;SDS011;27925;41.874;12.526;2022-08-19T06:59:03;11.05;;;3.00;;
40537;SDS011;27925;41.874;12.526;2022-08-19T07:01:38;9.80;;;3.17;;
40537;SDS011;27925;41.874;12.526;2022-08-19T07:04:07;10.82;;;3.17;;
40537;SDS011;27925;41.874;12.526;2022-08-19T07:06:34;9.27;;;2.90;;
40537;SDS011;27925;41.874;12.526;2022-08-19T07:09:01;12.60;;;3.05;;
40537;SDS011;27925;41.874;12.526;2022-08-19T07:11:29;8.30;;;2.47;;
40537;SDS011;27925;41.874;12.526;2022-08-19T07:13:55;9.52;;;2.90;;
40537;SDS011;27925;41.874;12.526;2022-08-19T07:16:21;9.88;;;3.00;;
40537;SDS011;27925;41.874;12.526;2022-08-19T07:18:48;12.82;;;2.88;;
40537;SDS011;27925;41.874;12.526;2022-08-19T07:21:19;11.70;;;3.28;;
40537;SDS011;27925;41.874;12.526;2022-08-19T07:23:47;13.20;;;3.45;;
40537;SDS011;27925;41.874;12.526;2022-08-19T07:26:18;17.30;;;3.35;;
40537;SDS011;27925;41.874;12.526;2022-08-19T07:28:49;16.50;;;3.38;;
40537;SDS011;27925;41.874;12.526;2022-08-19T07:31:17;9.93;;;2.75;;
40537;SDS011;27925;41.874;12.526;2022-08-19T07:33:45;13.90;;;3.70;;
40537;SDS011;27925;41.874;12.526;2022-08-19T07:36:12;13.10;;;2.80;;
40537;SDS011;27925;41.874;12.526;2022-08-19T07:38:43;9.25;;;3.15;;
40537;SDS011;27925;41.874;12.526;2022-08-19T07:41:13;10.60;;;2.80;;
40537;SDS011;27925;41.874;12.526;2022-08-19T07:43:40;11.95;;;2.85;;
40537;SDS011;27925;41.874;12.526;2022-08-19T07:46:11;9.20;;;2.97;;
40537;SDS011;27925;41.874;12.526;2022-08-19T07:48:40;12.40;;;3.15;;
40537;SDS011;27925;41.874;12.526;2022-08-19T07:51:07;10.48;;;3.00;;
40537;SDS011;27925;41.874;12.526;2022-08-19T07:53:35;12.15;;;2.85;;
40537;SDS011;27925;41.874;12.526;2022-08-19T07:56:02;9.95;;;2.80;;
40537;SDS011;27925;41.874;12.526;2022-08-19T07:58:33;15.98;;;3.65;;
40537;SDS011;27925;41.874;12.526;2022-08-19T08:01:00;13.35;;;3.15;;
40537;SDS011;27925;41.874;12.526;2022-08-19T08:03:26;11.23;;;2.72;;
40537;SDS011;27925;41.874;12.526;2022-08-19T08:06:12;9.32;;;2.75;;
40537;SDS011;27925;41.874;12.526;2022-08-19T08:08:57;6.72;;;2.35;;
40537;SDS011;27925;41.874;12.526;2022-08-19T08:11:43;7.07;;;2.65;;
40537;SDS011;27925;41.874;12.526;2022-08-19T08:14:16;10.75;;;2.58;;
40537;SDS011;27925;41.874;12.526;2022-08-19T08:16:45;10.25;;;2.50;;
40537;SDS011;27925;41.874;12.526;2022-08-19T08:19:12;8.57;;;2.40;;
40537;SDS011;27925;41.874;12.526;2022-08-19T08:21:42;6.72;;;2.70;;
40537;SDS011;27925;41.874;12.526;2022-08-19T08:24:08;9.23;;;2.65;;
40537;SDS011;27925;41.874;12.526;2022-08-19T08:26:34;24.90;;;3.60;;
40537;SDS011;27925;41.874;12.526;2022-08-19T08:29:00;14.25;;;3.70;;
40537;SDS011;27925;41.874;12.526;2022-08-19T08:31:26;33.55;;;5.65;;
40537;SDS011;27925;41.874;12.526;2022-08-19T08:33:52;18.88;;;3.33;;
40537;SDS011;27925;41.874;12.526;2022-08-19T08:36:18;10.82;;;2.80;;
40537;SDS011;27925;41.874;12.526;2022-08-19T08:38:44;14.70;;;2.83;;
40537;SDS011;27925;41.874;12.526;2022-08-19T08:43:57;12.27;;;2.78;;
40537;SDS011;27925;41.874;12.526;2022-08-19T08:48:54;17.25;;;3.92;;
40537;SDS011;27925;41.874;12.526;2022-08-19T08:51:26;20.58;;;4.07;;
40537;SDS011;27925;41.874;12.526;2022-08-19T08:54:14;9.38;;;2.92;;
40537;SDS011;27925;41.874;12.526;2022-08-19T08:56:43;16.50;;;3.45;;
40537;SDS011;27925;41.874;12.526;2022-08-19T09:01:51;11.88;;;3.03;;
40537;SDS011;27925;41.874;12.526;2022-08-19T09:04:17;14.90;;;3.17;;
40537;SDS011;27925;41.874;12.526;2022-08-19T09:09:41;17.33;;;3.17;;
40537;SDS011;27925;41.874;12.526;2022-08-19T09:15:24;14.10;;;3.50;;
40537;SDS011;27925;41.874;12.526;2022-08-19T09:17:58;17.60;;;4.10;;
40537;SDS011;27925;41.874;12.526;2022-08-19T09:20:26;14.32;;;3.95;;
40537;SDS011;27925;41.874;12.526;2022-08-19T09:22:52;15.25;;;3.72;;
40537;SDS011;27925;41.874;12.526;2022-08-19T09:25:19;26.15;;;4.75;;
40537;SDS011;27925;41.874;12.526;2022-08-19T09:27:50;22.15;;;3.95;;
40537;SDS011;27925;41.874;12.526;2022-08-19T09:30:25;14.10;;;3.80;;
40537;SDS011;27925;41.874;12.526;2022-08-19T09:32:53;15.75;;;3.85;;
40537;SDS011;27925;41.874;12.526;2022-08-19T09:35:24;12.13;;;3.42;;
40537;SDS011;27925;41.874;12.526;2022-08-19T09:37:51;15.27;;;3.65;;
40537;SDS011;27925;41.874;12.526;2022-08-19T09:40:18;9.85;;;3.50;;
40537;SDS011;27925;41.874;12.526;2022-08-19T09:42:45;12.77;;;3.58;;
40537;SDS011;27925;41.874;12.526;2022-08-19T09:45:12;15.57;;;3.78;;
40537;SDS011;27925;41.874;12.526;2022-08-19T09:47:42;10.45;;;3.60;;
40537;SDS011;27925;41.874;12.526;2022-08-19T09:50:09;8.85;;;3.17;;
40537;SDS011;27925;41.874;12.526;2022-08-19T09:52:36;13.35;;;3.60;;
40537;SDS011;27925;41.874;12.526;2022-08-19T09:55:04;10.88;;;3.30;;
40537;SDS011;27925;41.874;12.526;2022-08-19T09:57:31;15.52;;;3.15;;
40537;SDS011;27925;41.874;12.526;2022-08-19T09:59:57;10.63;;;3.20;;
40537;SDS011;27925;41.874;12.526;2022-08-19T10:02:23;7.03;;;2.72;;
40537;SDS011;27925;41.874;12.526;2022-08-19T10:04:49;8.65;;;3.38;;
40537;SDS011;27925;41.874;12.526;2022-08-19T10:07:34;10.80;;;3.00;;
40537;SDS011;27925;41.874;12.526;2022-08-19T10:10:00;10.25;;;3.50;;
40537;SDS011;27925;41.874;12.526;2022-08-19T10:12:26;8.68;;;3.03;;
40537;SDS011;27925;41.874;12.526;2022-08-19T10:14:51;9.15;;;2.97;;
40537;SDS011;27925;41.874;12.526;2022-08-19T10:17:19;12.27;;;3.10;;
40537;SDS011;27925;41.874;12.526;2022-08-19T10:19:45;11.27;;;2.70;;
40537;SDS011;27925;41.874;12.526;2022-08-19T10:22:12;10.68;;;2.92;;
40537;SDS011;27925;41.874;12.526;2022-08-19T10:24:38;9.30;;;3.38;;
40537;SDS011;27925;41.874;12.526;2022-08-19T10:27:06;9.10;;;3.10;;
40537;SDS011;27925;41.874;12.526;2022-08-19T10:29:32;8.80;;;3.10;;
40537;SDS011;27925;41.874;12.526;2022-08-19T10:32:03;8.95;;;2.95;;
40537;SDS011;27925;41.874;12.526;2022-08-19T10:34:32;10.25;;;3.08;;
40537;SDS011;27925;41.874;12.526;2022-08-19T10:36:58;9.70;;;2.78;;
40537;SDS011;27925;41.874;12.526;2022-08-19T10:39:25;10.57;;;2.75;;
40537;SDS011;27925;41.874;12.526;2022-08-19T10:41:54;11.23;;;3.50;;
40537;SDS011;27925;41.874;12.526;2022-08-19T10:44:21;10.20;;;3.15;;
40537;SDS011;27925;41.874;12.526;2022-08-19T10:46:48;9.77;;;3.15;;
40537;SDS011;27925;41.874;12.526;2022-08-19T10:49:13;10.80;;;3.25;;
40537;SDS011;27925;41.874;12.526;2022-08-19T10:51:39;11.85;;;2.70;;
40537;SDS011;27925;41.874;12.526;2022-08-19T10:54:25;13.20;;;3.30;;
40537;SDS011;27925;41.874;12.526;2022-08-19T10:57:11;9.95;;;2.90;;
40537;SDS011;27925;41.874;12.526;2022-08-19T10:59:38;15.25;;;3.58;;
40537;SDS011;27925;41.874;12.526;2022-08-19T11:02:06;11.90;;;3.22;;
40537;SDS011;27925;41.874;12.526;2022-08-19T11:04:35;14.07;;;3.85;;
40537;SDS011;27925;41.874;12.526;2022-08-19T11:07:02;12.88;;;3.70;;
40537;SDS011;27925;41.874;12.526;2022-08-19T11:09:28;16.00;;;4.13;;
40537;SDS011;27925;41.874;12.526;2022-08-19T11:11:54;15.52;;;4.00;;
40537;SDS011;27925;41.874;12.526;2022-08-19T11:14:21;12.05;;;4.00;;
40537;SDS011;27925;41.874;12.526;2022-08-19T11:16:49;11.68;;;3.40;;
40537;SDS011;27925;41.874;12.526;2022-08-19T11:19:15;12.55;;;3.65;;
40537;SDS011;27925;41.874;12.526;2022-08-19T11:21:45;13.50;;;3.55;;
40537;SDS011;27925;41.874;12.526;2022-08-19T11:24:17;9.45;;;2.72;;
40537;SDS011;27925;41.874;12.526;2022-08-19T11:26:45;8.30;;;3.00;;
40537;SDS011;27925;41.874;12.526;2022-08-19T11:29:14;10.20;;;2.92;;
40537;SDS011;27925;41.874;12.526;2022-08-19T11:31:41;14.70;;;3.08;;
40537;SDS011;27925;41.874;12.526;2022-08-19T11:34:09;10.80;;;3.30;;
40537;SDS011;27925;41.874;12.526;2022-08-19T11:36:38;6.93;;;2.55;;
40537;SDS011;27925;41.874;12.526;2022-08-19T11:39:07;9.50;;;2.78;;
40537;SDS011;27925;41.874;12.526;2022-08-19T11:41:34;12.18;;;3.10;;
40537;SDS011;27925;41.874;12.526;2022-08-19T11:44:00;12.65;;;2.15;;
40537;SDS011;27925;41.874;12.526;2022-08-19T11:46:28;8.13;;;2.60;;
40537;SDS011;27925;41.874;12.526;2022-08-19T11:48:55;13.38;;;2.88;;
40537;SDS011;27925;41.874;12.526;2022-08-19T11:51:22;10.30;;;3.17;;
40537;SDS011;27925;41.874;12.526;2022-08-19T11:53:49;6.50;;;2.67;;
40537;SDS011;27925;41.874;12.526;2022-08-19T11:56:15;8.07;;;2.70;;
40537;SDS011;27925;41.874;12.526;2022-08-19T11:58:42;9.70;;;2.88;;
40537;SDS011;27925;41.874;12.526;2022-08-19T12:01:09;7.95;;;2.40;;
40537;SDS011;27925;41.874;12.526;2022-08-19T12:03:40;9.13;;;2.97;;
40537;SDS011;27925;41.874;12.526;2022-08-19T12:06:07;9.82;;;2.90;;
40537;SDS011;27925;41.874;12.526;2022-08-19T12:08:35;12.00;;;3.13;;
40537;SDS011;27925;41.874;12.526;2022-08-19T12:11:01;7.38;;;2.40;;
40537;SDS011;27925;41.874;12.526;2022-08-19T12:13:27;7.20;;;2.53;;
40537;SDS011;27925;41.874;12.526;2022-08-19T12:15:53;8.88;;;2.38;;
40537;SDS011;27925;41.874;12.526;2022-08-19T12:18:19;6.38;;;2.08;;
40537;SDS011;27925;41.874;12.526;2022-08-19T12:20:45;8.50;;;2.67;;
40537;SDS011;27925;41.874;12.526;2022-08-19T12:23:12;10.02;;;3.10;;
40537;SDS011;27925;41.874;12.526;2022-08-19T12:25:43;7.10;;;2.33;;
40537;SDS011;27925;41.874;12.526;2022-08-19T12:28:15;8.68;;;2.40;;
40537;SDS011;27925;41.874;12.526;2022-08-19T12:30:41;7.20;;;2.45;;
40537;SDS011;27925;41.874;12.526;2022-08-19T12:33:08;6.78;;;2.20;;
40537;SDS011;27925;41.874;12.526;2022-08-19T12:35:34;4.72;;;2.40;;
40537;SDS011;27925;41.874;12.526;2022-08-19T12:38:01;7.78;;;2.33;;
40537;SDS011;27925;41.874;12.526;2022-08-19T12:40:27;5.57;;;2.40;;
40537;SDS011;27925;41.874;12.526;2022-08-19T12:42:53;6.40;;;2.30;;
40537;SDS011;27925;41.874;12.526;2022-08-19T12:45:19;6.60;;;2.20;;
40537;SDS011;27925;41.874;12.526;2022-08-19T12:47:45;6.88;;;2.10;;
40537;SDS011;27925;41.874;12.526;2022-08-19T12:50:11;7.43;;;2.30;;
40537;SDS011;27925;41.874;12.526;2022-08-19T12:52:37;6.90;;;2.40;;
40537;SDS011;27925;41.874;12.526;2022-08-19T12:55:04;8.10;;;2.55;;
40537;SDS011;27925;41.874;12.526;2022-08-19T12:57:31;9.82;;;2.40;;
40537;SDS011;27925;41.874;12.526;2022-08-19T13:00:08;8.57;;;2.28;;
40537;SDS011;27925;41.874;12.526;2022-08-19T13:02:38;6.18;;;2.45;;
40537;SDS011;27925;41.874;12.526;2022-08-19T13:05:06;11.20;;;2.70;;
40537;SDS011;27925;41.874;12.526;2022-08-19T13:07:35;13.35;;;2.70;;
40537;SDS011;27925;41.874;12.526;2022-08-19T13:10:02;15.05;;;2.95;;
40537;SDS011;27925;41.874;12.526;2022-08-19T13:12:29;12.85;;;2.80;;
40537;SDS011;27925;41.874;12.526;2022-08-19T13:14:55;10.68;;;2.80;;
40537;SDS011;27925;41.874;12.526;2022-08-19T13:17:23;6.78;;;2.42;;
40537;SDS011;27925;41.874;12.526;2022-08-19T13:19:50;12.63;;;2.40;;
40537;SDS011;27925;41.874;12.526;2022-08-19T13:22:15;8.15;;;2.38;;
40537;SDS011;27925;41.874;12.526;2022-08-19T13:24:41;8.25;;;2.67;;
40537;SDS011;27925;41.874;12.526;2022-08-19T13:27:07;10.25;;;2.97;;
40537;SDS011;27925;41.874;12.526;2022-08-19T13:29:33;11.70;;;3.50;;
40537;SDS011;27925;41.874;12.526;2022-08-19T13:32:18;8.80;;;2.70;;
40537;SDS011;27925;41.874;12.526;2022-08-19T13:35:02;8.88;;;2.42;;
40537;SDS011;27925;41.874;12.526;2022-08-19T13:37:29;8.02;;;2.33;;
40537;SDS011;27925;41.874;12.526;2022-08-19T13:40:07;6.53;;;2.53;;
40537;SDS011;27925;41.874;12.526;2022-08-19T13:42:47;6.45;;;2.70;;
40537;SDS011;27925;41.874;12.526;2022-08-19T13:45:14;8.50;;;2.72;;
40537;SDS011;27925;41.874;12.526;2022-08-19T13:47:44;8.23;;;3.20;;
40537;SDS011;27925;41.874;12.526;2022-08-19T13:50:12;13.07;;;2.75;;
40537;SDS011;27925;41.874;12.526;2022-08-19T13:52:39;8.23;;;2.72;;
40537;SDS011;27925;41.874;12.526;2022-08-19T13:55:05;7.70;;;2.65;;
40537;SDS011;27925;41.874;12.526;2022-08-19T13:57:32;9.43;;;2.50;;
40537;SDS011;27925;41.874;12.526;2022-08-19T13:59:59;6.43;;;2.58;;
40537;SDS011;27925;41.874;12.526;2022-08-19T14:02:25;9.68;;;2.78;;
40537;SDS011;27925;41.874;12.526;2022-08-19T14:04:51;8.85;;;3.00;;
40537;SDS011;27925;41.874;12.526;2022-08-19T14:07:17;9.20;;;2.58;;
40537;SDS011;27925;41.874;12.526;2022-08-19T14:09:43;10.02;;;3.00;;
40537;SDS011;27925;41.874;12.526;2022-08-19T14:12:09;7.88;;;2.60;;
40537;SDS011;27925;41.874;12.526;2022-08-19T14:14:38;8.02;;;2.83;;
40537;SDS011;27925;41.874;12.526;2022-08-19T14:17:07;8.25;;;2.80;;
40537;SDS011;27925;41.874;12.526;2022-08-19T14:19:34;10.52;;;3.22;;
40537;SDS011;27925;41.874;12.526;2022-08-19T14:22:00;10.60;;;3.05;;
40537;SDS011;27925;41.874;12.526;2022-08-19T14:24:27;12.20;;;3.22;;
40537;SDS011;27925;41.874;12.526;2022-08-19T14:26:53;8.52;;;2.63;;
40537;SDS011;27925;41.874;12.526;2022-08-19T14:29:19;6.10;;;2.38;;
40537;SDS011;27925;41.874;12.526;2022-08-19T14:31:44;7.07;;;2.30;;
40537;SDS011;27925;41.874;12.526;2022-08-19T14:34:10;8.52;;;2.80;;
40537;SDS011;27925;41.874;12.526;2022-08-19T14:36:37;8.27;;;2.30;;
40537;SDS011;27925;41.874;12.526;2022-08-19T14:39:03;9.50;;;2.60;;
40537;SDS011;27925;41.874;12.526;2022-08-19T14:41:30;6.75;;;2.50;;
40537;SDS011;27925;41.874;12.526;2022-08-19T14:43:56;14.82;;;2.97;;
40537;SDS011;27925;41.874;12.526;2022-08-19T14:46:24;10.80;;;2.67;;
40537;SDS011;27925;41.874;12.526;2022-08-19T14:48:52;7.95;;;2.05;;
40537;SDS011;27925;41.874;12.526;2022-08-19T14:51:18;11.68;;;2.58;;